Time;durP1;ratioP1;P1;durP2;ratioP2;P2;SDS_P1;SDS_P2;PMS_P1;PMS_P2;Temp;Humidity;BMP_temperature;BMP_pressure;BME280_temperature;BME280_humidity;BME280_pressure;Samples;Min_cycle;Max_cycle;Signal;HPM_P1;HPM_P2
2023/06/27 00:00:21;;;;;;;2.00;1.80;;;19.40;64.10;;;;;;5014003;28;20030;-79
2023/06/27 00:02:47;;;;;;;1.70;1.58;;;19.30;64.40;;;;;;5012554;28;20109;-79
2023/06/27 00:05:13;;;;;;;1.73;1.52;;;19.20;64.60;;;;;;5014026;28;20041;-78
2023/06/27 00:07:41;;;;;;;1.73;1.63;;;19.20;64.80;;;;;;5015144;28;20088;-79
2023/06/27 00:10:09;;;;;;;1.45;1.35;;;19.10;64.90;;;;;;5016388;28;20037;-78
2023/06/27 00:12:35;;;;;;;1.75;1.60;;;19.10;64.90;;;;;;5017688;28;20034;-77
2023/06/27 00:15:02;;;;;;;1.80;1.70;;;19.10;65.00;;;;;;5016757;28;20373;-78
2023/06/27 00:17:27;;;;;;;1.55;1.45;;;19.10;65.00;;;;;;5015779;28;20083;-77
2023/06/27 00:19:58;;;;;;;1.50;1.40;;;19.10;64.90;;;;;;5017292;28;20030;-77
2023/06/27 00:22:24;;;;;;;1.50;1.40;;;19.00;64.90;;;;;;5017714;28;20083;-78
2023/06/27 00:24:50;;;;;;;1.73;1.63;;;19.00;65.00;;;;;;5017164;28;20034;-77
2023/06/27 00:27:15;;;;;;;1.40;1.30;;;19.00;64.90;;;;;;5017098;28;20052;-78
2023/06/27 00:29:41;;;;;;;1.63;1.52;;;19.00;65.00;;;;;;5016866;28;20387;-77
2023/06/27 00:32:07;;;;;;;1.45;1.35;;;18.90;64.90;;;;;;5017260;28;20101;-78
2023/06/27 00:34:33;;;;;;;2.25;1.52;;;18.90;65.00;;;;;;5016277;28;20026;-78
2023/06/27 00:36:58;;;;;;;1.50;1.40;;;18.90;65.00;;;;;;5017424;28;20026;-79
2023/06/27 00:39:24;;;;;;;1.48;1.38;;;18.90;65.00;;;;;;5016927;28;20033;-78
2023/06/27 00:41:51;;;;;;;1.67;1.58;;;18.80;65.00;;;;;;5017079;28;20459;-78
2023/06/27 00:44:17;;;;;;;1.50;1.40;;;18.80;65.10;;;;;;5017116;28;20060;-78
2023/06/27 00:46:45;;;;;;;1.60;1.50;;;18.80;65.10;;;;;;5015613;28;20424;-78
2023/06/27 00:49:11;;;;;;;1.52;1.42;;;18.80;65.20;;;;;;5015693;28;20033;-80
2023/06/27 00:51:40;;;;;;;1.30;1.30;;;18.80;65.30;;;;;;5016958;28;20041;-80
2023/06/27 00:54:06;;;;;;;1.75;1.58;;;18.70;65.40;;;;;;5015432;28;20057;-80
2023/06/27 00:56:32;;;;;;;1.60;1.50;;;18.70;65.50;;;;;;5015286;28;20037;-79
2023/06/27 00:59:00;;;;;;;1.52;1.42;;;18.70;65.60;;;;;;5016448;28;20030;-78
2023/06/27 01:01:29;;;;;;;1.70;1.60;;;18.70;65.70;;;;;;5015670;28;20093;-78
2023/06/27 01:03:55;;;;;;;1.60;1.50;;;18.70;65.70;;;;;;5016450;28;20022;-78
2023/06/27 01:06:45;;;;;;;2.22;1.60;;;18.60;65.70;;;;;;5015128;28;20037;-78
2023/06/27 01:09:26;;;;;;;1.73;1.52;;;18.70;65.80;;;;;;5016476;28;20041;-78
2023/06/27 01:12:09;;;;;;;1.40;1.30;;;18.70;65.70;;;;;;5016981;28;20030;-78
2023/06/27 01:14:36;;;;;;;1.50;1.40;;;18.80;65.70;;;;;;5015342;28;20022;-79
2023/06/27 01:17:03;;;;;;;1.60;1.50;;;18.80;65.70;;;;;;5016489;28;20040;-78
2023/06/27 01:19:31;;;;;;;1.27;1.20;;;18.80;65.60;;;;;;5013802;28;20053;-78
2023/06/27 01:22:05;;;;;;;1.48;1.38;;;18.80;65.60;;;;;;5015545;28;20037;-77
2023/06/27 01:24:31;;;;;;;1.80;1.70;;;18.90;65.60;;;;;;5017511;28;20033;-77
2023/06/27 01:26:57;;;;;;;1.85;1.65;;;18.90;65.60;;;;;;5016597;28;20044;-78
2023/06/27 01:29:23;;;;;;;1.75;1.65;;;18.90;65.70;;;;;;5016115;28;20038;-78
2023/06/27 01:32:22;;;;;;;1.70;1.60;;;18.90;65.80;;;;;;5016136;28;20092;-77
2023/06/27 01:35:06;;;;;;;1.80;1.70;;;18.80;65.90;;;;;;5014835;28;20026;-77
2023/06/27 01:37:39;;;;;;;2.37;1.93;;;18.70;66.10;;;;;;5014552;28;20034;-78
2023/06/27 01:40:10;;;;;;;1.80;1.60;;;18.60;66.50;;;;;;5014254;28;20025;-77
2023/06/27 01:42:40;;;;;;;1.70;1.60;;;18.50;66.70;;;;;;5016018;28;20041;-78
2023/06/27 01:45:07;;;;;;;1.77;1.67;;;18.40;66.80;;;;;;5015843;28;20125;-79
2023/06/27 01:47:36;;;;;;;2.03;1.80;;;18.50;67.10;;;;;;5014578;28;20077;-78
2023/06/27 01:50:03;;;;;;;2.00;1.80;;;18.40;67.00;;;;;;5015428;28;20392;-78
2023/06/27 01:52:29;;;;;;;1.75;1.65;;;18.40;67.00;;;;;;5015804;28;20101;-78
2023/06/27 01:54:54;;;;;;;2.70;1.55;;;18.40;67.00;;;;;;5015820;28;20090;-78
2023/06/27 01:57:20;;;;;;;1.88;1.70;;;18.40;67.00;;;;;;5015290;28;20069;-78
2023/06/27 01:59:46;;;;;;;1.70;1.60;;;18.50;66.90;;;;;;5014577;28;20382;-79
2023/06/27 02:02:11;;;;;;;1.83;1.73;;;18.50;66.80;;;;;;5015637;28;20029;-78
2023/06/27 02:04:37;;;;;;;1.90;1.80;;;18.50;66.80;;;;;;5015146;28;20091;-78
2023/06/27 02:07:03;;;;;;;1.73;1.63;;;18.50;66.80;;;;;;5015332;28;20032;-79
2023/06/27 02:09:28;;;;;;;1.88;1.70;;;18.50;66.80;;;;;;5015201;28;20038;-78
2023/06/27 02:11:54;;;;;;;1.75;1.65;;;18.50;66.80;;;;;;5013961;28;20030;-78
2023/06/27 02:14:20;;;;;;;1.67;1.58;;;18.50;66.80;;;;;;5015808;28;20033;-78
2023/06/27 02:16:45;;;;;;;1.80;1.70;;;18.50;66.80;;;;;;5015072;28;20080;-78
2023/06/27 02:19:11;;;;;;;1.80;1.70;;;18.60;66.80;;;;;;5015477;28;20026;-79
2023/06/27 02:21:37;;;;;;;2.10;1.90;;;18.60;66.80;;;;;;5013563;28;20061;-78
2023/06/27 02:24:03;;;;;;;1.92;1.80;;;18.60;66.80;;;;;;5014985;28;20029;-77
2023/06/27 02:26:28;;;;;;;2.20;2.00;;;18.60;66.70;;;;;;5013411;28;20040;-77
2023/06/27 02:28:54;;;;;;;1.75;1.65;;;18.60;66.80;;;;;;5015230;28;20030;-77
2023/06/27 02:31:20;;;;;;;1.95;1.80;;;18.50;66.90;;;;;;5014832;28;20049;-77
2023/06/27 02:33:45;;;;;;;1.80;1.70;;;18.40;67.10;;;;;;5014594;28;20164;-77
2023/06/27 02:36:11;;;;;;;4.00;1.90;;;18.30;67.20;;;;;;5014697;28;20025;-79
2023/06/27 02:38:37;;;;;;;2.17;1.98;;;18.30;67.40;;;;;;5014648;28;20492;-78
2023/06/27 02:41:02;;;;;;;2.35;2.15;;;18.30;67.50;;;;;;5014805;28;20034;-79
2023/06/27 02:43:28;;;;;;;1.83;1.73;;;18.20;67.40;;;;;;5014768;28;20135;-79
2023/06/27 02:45:54;;;;;;;1.98;1.88;;;18.30;67.40;;;;;;5015128;28;20456;-79
2023/06/27 02:48:20;;;;;;;2.22;2.03;;;18.30;67.40;;;;;;5014434;28;20600;-79
2023/06/27 02:50:49;;;;;;;2.35;1.90;;;18.30;67.40;;;;;;5014764;28;20036;-79
2023/06/27 02:53:15;;;;;;;1.85;1.75;;;18.30;67.50;;;;;;5014414;28;20026;-79
2023/06/27 02:55:41;;;;;;;2.20;2.00;;;18.30;67.50;;;;;;5013368;28;20032;-78
2023/06/27 02:58:07;;;;;;;1.95;1.80;;;18.30;67.40;;;;;;5014538;28;20038;-78
2023/06/27 03:00:32;;;;;;;2.00;1.80;;;18.30;67.50;;;;;;5014852;28;20104;-79
2023/06/27 03:02:58;;;;;;;2.97;1.70;;;18.30;67.40;;;;;;5014409;28;20037;-79
2023/06/27 03:05:23;;;;;;;2.03;1.92;;;18.40;67.40;;;;;;5014261;28;20487;-78
2023/06/27 03:07:49;;;;;;;2.20;2.00;;;18.30;67.30;;;;;;5014369;28;20088;-78
2023/06/27 03:10:15;;;;;;;2.60;1.83;;;18.40;67.40;;;;;;5014142;28;20026;-78
2023/06/27 03:12:40;;;;;;;1.70;1.60;;;18.40;67.40;;;;;;5014251;28;20030;-78
2023/06/27 03:15:06;;;;;;;1.92;1.80;;;18.50;67.40;;;;;;5014176;28;20026;-78
2023/06/27 03:17:32;;;;;;;1.95;1.85;;;18.50;67.30;;;;;;5014044;28;20036;-78
2023/06/27 03:19:58;;;;;;;2.45;2.25;;;18.50;67.30;;;;;;5013121;28;20022;-78
2023/06/27 03:22:23;;;;;;;2.25;2.05;;;18.50;67.30;;;;;;5012798;28;20034;-78
2023/06/27 03:24:49;;;;;;;2.47;2.28;;;18.50;67.40;;;;;;5014494;28;20030;-77
2023/06/27 03:27:20;;;;;;;2.30;2.10;;;18.50;67.50;;;;;;5014630;28;20034;-78
2023/06/27 03:29:45;;;;;;;2.30;2.10;;;18.50;67.50;;;;;;5013508;28;20121;-79
2023/06/27 03:32:12;;;;;;;2.28;2.03;;;18.50;67.50;;;;;;5014168;28;20062;-78
2023/06/27 03:34:42;;;;;;;2.50;2.30;;;18.60;67.40;;;;;;5014364;28;20071;-78
2023/06/27 03:37:08;;;;;;;2.50;2.30;;;18.60;67.50;;;;;;5013274;28;20045;-78
2023/06/27 03:39:33;;;;;;;2.20;2.00;;;18.60;67.50;;;;;;5013069;28;20452;-77
2023/06/27 03:41:59;;;;;;;2.60;2.38;;;18.50;67.60;;;;;;5014147;28;20048;-77
2023/06/27 03:44:25;;;;;;;1.88;1.77;;;18.50;67.60;;;;;;5018008;28;20054;-79
2023/06/27 03:46:51;;;;;;;2.70;2.40;;;18.50;67.70;;;;;;5017863;28;20488;-77
2023/06/27 03:49:17;;;;;;;2.92;2.17;;;18.50;67.80;;;;;;5016698;28;20043;-77
2023/06/27 03:51:42;;;;;;;2.33;2.13;;;18.50;67.80;;;;;;5000178;28;20026;-78
2023/06/27 03:54:09;;;;;;;2.47;2.28;;;18.40;67.90;;;;;;5016402;28;20114;-78
2023/06/27 03:56:35;;;;;;;2.40;2.20;;;18.50;67.90;;;;;;5017055;28;20472;-79
2023/06/27 03:59:00;;;;;;;2.88;2.10;;;18.50;67.70;;;;;;5017025;28;20041;-78
2023/06/27 04:01:26;;;;;;;2.85;2.03;;;18.60;67.80;;;;;;5017713;28;20029;-78
2023/06/27 04:03:52;;;;;;;1.83;1.73;;;18.60;68.30;;;;;;5017790;28;20022;-78
2023/06/27 04:06:21;;;;;;;2.15;2.00;;;18.70;67.70;;;;;;5032518;28;20080;-78
2023/06/27 04:08:47;;;;;;;2.30;2.10;;;18.80;67.60;;;;;;5017756;28;20049;-78
2023/06/27 04:11:13;;;;;;;2.00;1.90;;;18.90;67.40;;;;;;5017554;28;20034;-78
2023/06/27 04:13:38;;;;;;;2.17;2.05;;;18.90;67.40;;;;;;5016174;28;20471;-78
2023/06/27 04:16:04;;;;;;;2.97;2.15;;;18.90;67.30;;;;;;5017438;28;20391;-80
2023/06/27 04:18:30;;;;;;;2.50;2.30;;;19.00;67.30;;;;;;5017320;28;20462;-77
2023/06/27 04:20:57;;;;;;;2.72;1.90;;;19.00;67.10;;;;;;5017552;28;20072;-78
2023/06/27 04:23:23;;;;;;;2.53;2.33;;;19.10;67.20;;;;;;5016911;28;20036;-77
2023/06/27 04:26:05;;;;;;;2.80;2.50;;;19.10;67.00;;;;;;5017063;28;20535;-79
2023/06/27 04:28:31;;;;;;;2.60;2.40;;;19.10;67.10;;;;;;4999811;28;20068;-79
2023/06/27 04:30:58;;;;;;;2.40;2.20;;;19.10;67.20;;;;;;5017091;28;20117;-79
2023/06/27 04:33:24;;;;;;;2.60;2.40;;;19.10;67.20;;;;;;5016973;28;20375;-78
2023/06/27 04:35:49;;;;;;;2.58;2.30;;;19.20;67.10;;;;;;5016719;28;20109;-79
2023/06/27 04:38:15;;;;;;;3.20;2.53;;;19.20;67.10;;;;;;5016999;28;20468;-79
2023/06/27 04:40:43;;;;;;;2.60;2.40;;;19.20;67.10;;;;;;5016797;28;20026;-79
2023/06/27 04:43:09;;;;;;;3.28;2.40;;;19.10;67.10;;;;;;5015261;28;20493;-79
2023/06/27 04:45:34;;;;;;;2.40;2.20;;;19.20;67.10;;;;;;5015890;28;20084;-78
2023/06/27 04:48:00;;;;;;;2.50;2.30;;;19.20;67.00;;;;;;5015458;28;20447;-79
2023/06/27 04:50:26;;;;;;;2.35;2.15;;;19.20;66.90;;;;;;5016421;28;20030;-78
2023/06/27 04:52:51;;;;;;;3.08;2.22;;;19.30;66.90;;;;;;5016054;28;20479;-78
2023/06/27 04:55:17;;;;;;;2.67;2.30;;;19.30;66.90;;;;;;5016279;28;20109;-78
2023/06/27 04:57:43;;;;;;;2.30;2.10;;;19.30;66.80;;;;;;5015202;28;20596;-78
2023/06/27 05:00:12;;;;;;;2.38;2.17;;;19.40;66.80;;;;;;5015011;28;20026;-77
2023/06/27 05:02:37;;;;;;;2.35;2.15;;;19.40;66.70;;;;;;5015373;28;20030;-77
2023/06/27 05:05:05;;;;;;;3.17;2.75;;;19.50;66.80;;;;;;5017060;28;20175;-79
2023/06/27 05:07:30;;;;;;;2.60;2.40;;;19.50;66.50;;;;;;5016411;28;20030;-78
2023/06/27 05:09:56;;;;;;;2.35;2.15;;;19.50;66.60;;;;;;5014505;28;20032;-78
2023/06/27 05:12:22;;;;;;;2.83;2.22;;;19.50;66.60;;;;;;5015713;28;20029;-78
2023/06/27 05:14:47;;;;;;;2.25;2.05;;;19.50;66.60;;;;;;5015262;28;20030;-80
2023/06/27 05:17:13;;;;;;;2.50;2.30;;;19.60;66.70;;;;;;5014649;28;20029;-76
2023/06/27 05:19:39;;;;;;;2.58;2.38;;;19.70;66.80;;;;;;5015143;28;20536;-78
2023/06/27 05:22:04;;;;;;;2.55;2.30;;;19.90;66.30;;;;;;5015016;28;20476;-77
2023/06/27 05:24:30;;;;;;;2.03;1.92;;;20.00;66.10;;;;;;5014812;28;20534;-77
2023/06/27 05:26:55;;;;;;;2.25;2.08;;;20.00;66.00;;;;;;5014695;28;20033;-78
2023/06/27 05:29:21;;;;;;;2.88;2.30;;;20.00;65.70;;;;;;5015295;28;20076;-77
2023/06/27 05:31:47;;;;;;;2.72;2.30;;;20.00;65.50;;;;;;5015047;28;20030;-78
2023/06/27 05:34:12;;;;;;;2.40;2.20;;;20.00;65.50;;;;;;5014942;28;20212;-77
2023/06/27 05:36:38;;;;;;;2.58;2.38;;;19.90;65.50;;;;;;5014408;28;20033;-76
2023/06/27 05:39:04;;;;;;;2.38;2.17;;;19.90;65.60;;;;;;5014608;28;20033;-78
2023/06/27 05:41:30;;;;;;;2.20;2.00;;;19.90;65.60;;;;;;5014822;28;20477;-78
2023/06/27 05:43:56;;;;;;;2.40;2.10;;;19.90;65.70;;;;;;5014410;28;20099;-78
2023/06/27 05:46:21;;;;;;;2.20;2.00;;;19.90;65.70;;;;;;5012655;28;20388;-78
2023/06/27 05:48:47;;;;;;;2.33;2.13;;;19.90;65.80;;;;;;5013278;28;20044;-78
2023/06/27 05:51:13;;;;;;;2.33;2.13;;;19.90;65.50;;;;;;5014476;28;20464;-79
2023/06/27 05:53:41;;;;;;;2.30;2.10;;;19.90;65.60;;;;;;5014269;28;20108;-78
2023/06/27 05:56:08;;;;;;;2.30;2.10;;;19.90;65.40;;;;;;5014813;28;20502;-79
2023/06/27 05:58:37;;;;;;;2.10;1.90;;;20.00;65.40;;;;;;5014272;28;20076;-78
2023/06/27 06:01:02;;;;;;;2.60;2.38;;;20.00;65.10;;;;;;5014464;28;20472;-78
2023/06/27 06:03:28;;;;;;;2.55;2.10;;;20.00;64.40;;;;;;5013711;28;20049;-78
2023/06/27 06:05:54;;;;;;;1.95;1.85;;;19.90;64.00;;;;;;5013071;28;20022;-78
2023/06/27 06:08:19;;;;;;;2.33;2.13;;;19.90;64.20;;;;;;5013534;28;20034;-78
2023/06/27 06:10:45;;;;;;;2.78;2.13;;;19.90;64.10;;;;;;5012582;28;20423;-76
2023/06/27 06:13:11;;;;;;;2.10;2.00;;;19.90;64.20;;;;;;5013198;28;20485;-77
2023/06/27 06:15:37;;;;;;;2.08;1.98;;;19.90;64.40;;;;;;5009952;28;20485;-83
2023/06/27 06:18:03;;;;;;;1.90;1.80;;;20.00;64.10;;;;;;5012787;28;20030;-78
2023/06/27 06:20:29;;;;;;;2.53;2.33;;;20.00;63.90;;;;;;5014303;28;20068;-79
2023/06/27 06:22:55;;;;;;;2.10;1.90;;;20.00;63.80;;;;;;5012636;28;20025;-77
2023/06/27 06:25:21;;;;;;;2.53;1.90;;;20.10;63.90;;;;;;5014391;28;20376;-75
2023/06/27 06:27:47;;;;;;;3.08;2.08;;;20.20;63.90;;;;;;5013321;28;20037;-74
2023/06/27 06:30:13;;;;;;;2.25;2.00;;;20.30;63.80;;;;;;5012011;28;20041;-76
2023/06/27 06:32:39;;;;;;;2.10;1.90;;;20.30;63.30;;;;;;5012360;28;20022;-76
2023/06/27 06:35:06;;;;;;;3.33;2.30;;;20.30;63.20;;;;;;5012497;28;20057;-78
2023/06/27 06:37:32;;;;;;;2.30;2.10;;;20.30;63.40;;;;;;5013532;28;20037;-78
2023/06/27 06:39:57;;;;;;;2.15;1.95;;;20.40;63.30;;;;;;5014688;28;20034;-79
2023/06/27 06:42:23;;;;;;;2.45;2.20;;;20.60;63.00;;;;;;5013274;28;20113;-79
2023/06/27 06:44:48;;;;;;;2.20;2.10;;;20.60;62.50;;;;;;5014115;28;20064;-77
2023/06/27 06:47:14;;;;;;;2.35;2.13;;;20.70;62.20;;;;;;5014537;28;20375;-78
2023/06/27 06:49:40;;;;;;;2.40;2.20;;;20.80;61.80;;;;;;5014835;28;20065;-78
2023/06/27 06:52:06;;;;;;;2.70;2.20;;;21.00;61.50;;;;;;5014652;28;20029;-78
2023/06/27 06:54:32;;;;;;;1.90;1.80;;;21.10;61.10;;;;;;5014625;28;20423;-78
2023/06/27 06:56:58;;;;;;;1.83;1.73;;;21.20;60.90;;;;;;5013950;28;20379;-78
2023/06/27 06:59:23;;;;;;;2.50;1.88;;;21.30;60.50;;;;;;5012897;28;20029;-79
2023/06/27 07:01:49;;;;;;;1.80;1.70;;;21.30;59.40;;;;;;5014668;28;20026;-78
2023/06/27 07:04:15;;;;;;;2.22;2.00;;;21.20;59.00;;;;;;5014179;28;20136;-78
2023/06/27 07:06:40;;;;;;;2.30;2.10;;;21.20;59.40;;;;;;5013009;28;20037;-77
2023/06/27 07:09:06;;;;;;;2.15;1.95;;;21.30;59.40;;;;;;5013881;28;20030;-77
2023/06/27 07:11:32;;;;;;;3.95;2.10;;;21.40;59.10;;;;;;5014208;28;20105;-76
2023/06/27 07:13:59;;;;;;;2.55;2.00;;;21.50;58.70;;;;;;5013759;28;20021;-76
2023/06/27 07:16:25;;;;;;;2.13;1.92;;;21.50;58.20;;;;;;5013595;28;20033;-77
2023/06/27 07:18:51;;;;;;;2.28;2.08;;;21.60;58.10;;;;;;5013631;28;20030;-76
2023/06/27 07:21:17;;;;;;;2.13;1.92;;;21.70;57.90;;;;;;5012992;28;20026;-77
2023/06/27 07:23:42;;;;;;;2.00;1.90;;;21.80;57.80;;;;;;5012624;28;20361;-77
2023/06/27 07:26:08;;;;;;;1.88;1.70;;;21.80;57.90;;;;;;5013629;28;20030;-77
2023/06/27 07:28:34;;;;;;;1.60;1.50;;;21.80;57.80;;;;;;5013467;28;20519;-77
2023/06/27 07:31:00;;;;;;;1.95;1.85;;;21.90;57.70;;;;;;5013519;28;20030;-77
2023/06/27 07:33:25;;;;;;;2.20;2.00;;;21.90;57.60;;;;;;5013748;28;20021;-76
2023/06/27 07:35:51;;;;;;;1.90;1.80;;;21.90;57.00;;;;;;5013860;28;20084;-76
2023/06/27 07:38:17;;;;;;;2.08;1.80;;;21.90;56.80;;;;;;5012597;28;20068;-76
2023/06/27 07:40:43;;;;;;;1.92;1.73;;;22.00;57.00;;;;;;5013647;28;20096;-76
2023/06/27 07:43:09;;;;;;;2.10;1.90;;;22.00;57.00;;;;;;5013682;28;20104;-75
2023/06/27 07:45:35;;;;;;;2.90;2.17;;;22.00;56.80;;;;;;5013906;28;20032;-74
2023/06/27 07:48:00;;;;;;;2.40;2.20;;;22.00;56.60;;;;;;5012256;28;20038;-75
2023/06/27 07:50:26;;;;;;;2.08;1.88;;;22.20;57.00;;;;;;5012646;28;20460;-75
2023/06/27 07:52:51;;;;;;;1.88;1.75;;;22.20;56.90;;;;;;5013838;28;20026;-75
2023/06/27 07:55:17;;;;;;;2.38;1.70;;;22.30;56.50;;;;;;5012404;28;20113;-74
2023/06/27 07:57:43;;;;;;;3.05;1.67;;;22.30;56.50;;;;;;5013335;28;20030;-75
2023/06/27 08:00:10;;;;;;;1.95;1.85;;;22.30;57.30;;;;;;5014001;28;20074;-74
2023/06/27 08:02:36;;;;;;;2.53;1.90;;;22.30;56.10;;;;;;5013512;28;20029;-75
2023/06/27 08:05:02;;;;;;;2.03;1.83;;;22.30;55.70;;;;;;5013283;28;20026;-76
2023/06/27 08:07:27;;;;;;;2.10;1.90;;;22.30;55.70;;;;;;5013435;28;20036;-75
2023/06/27 08:09:53;;;;;;;1.92;1.80;;;22.30;55.50;;;;;;5013274;28;20080;-75
2023/06/27 08:12:19;;;;;;;1.92;1.80;;;22.30;55.80;;;;;;5013241;28;20107;-75
2023/06/27 08:14:45;;;;;;;1.92;1.80;;;22.40;55.70;;;;;;5012901;28;20411;-73
2023/06/27 08:17:11;;;;;;;2.00;1.90;;;22.40;55.40;;;;;;5012109;28;20042;-74
2023/06/27 08:19:36;;;;;;;2.58;1.50;;;22.40;55.80;;;;;;5013676;28;20030;-73
2023/06/27 08:22:02;;;;;;;1.95;1.77;;;22.50;55.60;;;;;;5013489;28;20036;-73
2023/06/27 08:24:28;;;;;;;2.50;1.50;;;22.60;55.80;;;;;;5013188;28;20026;-76
2023/06/27 08:26:55;;;;;;;1.75;1.65;;;22.70;56.50;;;;;;5012944;28;20028;-74
2023/06/27 08:29:23;;;;;;;1.58;1.48;;;22.80;55.70;;;;;;5015244;28;20064;-72
2023/06/27 08:31:51;;;;;;;1.60;1.50;;;22.80;55.70;;;;;;5017070;28;20148;-73
2023/06/27 08:34:17;;;;;;;2.47;1.58;;;22.90;55.30;;;;;;5016990;28;20026;-74
2023/06/27 08:36:43;;;;;;;1.63;1.50;;;23.00;55.30;;;;;;5016710;28;20037;-75
2023/06/27 08:39:09;;;;;;;1.60;1.50;;;23.00;55.30;;;;;;5016534;28;20026;-72
2023/06/27 08:41:35;;;;;;;1.40;1.30;;;23.10;54.90;;;;;;5016653;28;20033;-72
2023/06/27 08:44:01;;;;;;;2.22;1.30;;;23.20;55.10;;;;;;5016895;28;20046;-73
2023/06/27 08:46:31;;;;;;;1.45;1.35;;;23.30;55.00;;;;;;5015478;28;20030;-73
2023/06/27 08:49:01;;;;;;;1.60;1.50;;;23.30;55.00;;;;;;5015364;28;20034;-73
2023/06/27 08:51:29;;;;;;;1.70;1.60;;;23.40;54.90;;;;;;5016425;28;20065;-73
2023/06/27 08:54:02;;;;;;;2.13;1.20;;;23.50;54.80;;;;;;5016296;28;20050;-74
2023/06/27 08:56:29;;;;;;;1.50;1.40;;;23.50;54.70;;;;;;5030963;28;20468;-73
2023/06/27 08:59:00;;;;;;;1.70;1.30;;;23.60;54.60;;;;;;5015121;28;20112;-74
2023/06/27 09:01:30;;;;;;;1.17;1.17;;;23.70;54.50;;;;;;5016411;28;20076;-73
2023/06/27 09:03:58;;;;;;;1.20;1.10;;;23.80;54.40;;;;;;5014992;28;20492;-75
2023/06/27 09:06:23;;;;;;;1.50;1.40;;;23.90;54.30;;;;;;5014413;28;20113;-73
2023/06/27 09:08:49;;;;;;;1.67;1.58;;;23.90;54.10;;;;;;5013816;28;20125;-74
2023/06/27 09:11:16;;;;;;;1.63;1.50;;;24.00;54.10;;;;;;5015871;28;20026;-76
2023/06/27 09:13:42;;;;;;;1.42;1.33;;;24.00;54.50;;;;;;5016302;28;20105;-73
2023/06/27 09:16:08;;;;;;;1.50;1.40;;;24.10;53.80;;;;;;5016034;28;20109;-73
2023/06/27 09:18:36;;;;;;;2.45;1.60;;;24.10;53.70;;;;;;5014692;28;20120;-74
2023/06/27 09:21:03;;;;;;;1.92;1.70;;;24.20;53.80;;;;;;5016286;28;20026;-74
2023/06/27 09:23:30;;;;;;;1.60;1.50;;;24.20;53.70;;;;;;5016179;28;20018;-73
2023/06/27 09:26:12;;;;;;;2.00;1.80;;;24.30;53.60;;;;;;5015843;28;20049;-73
2023/06/27 09:28:46;;;;;;;1.75;1.65;;;24.40;53.20;;;;;;5015578;28;20451;-73
2023/06/27 09:31:15;;;;;;;;;;;24.40;53.40;;;;;;5015972;28;20028;-73
2023/06/27 09:33:44;;;;;;;1.63;1.52;;;24.40;52.60;;;;;;5030144;28;19957;-73
2023/06/27 09:36:11;;;;;;;1.42;1.33;;;24.50;53.50;;;;;;5014023;28;20572;-73
2023/06/27 09:38:37;;;;;;;3.20;1.60;;;24.60;53.40;;;;;;5015199;28;20037;-74
2023/06/27 09:41:03;;;;;;;1.65;1.55;;;24.70;53.30;;;;;;5014570;28;20376;-78
2023/06/27 09:43:35;;;;;;;2.00;1.80;;;24.70;53.10;;;;;;5015777;28;20049;-78
2023/06/27 09:46:03;;;;;;;1.90;1.45;;;24.80;53.00;;;;;;5014046;28;20405;-73
2023/06/27 09:48:29;;;;;;;1.50;1.40;;;24.80;53.00;;;;;;5015432;28;20172;-74
2023/06/27 09:51:01;;;;;;;2.55;1.75;;;24.80;53.00;;;;;;5015900;28;20377;-74
2023/06/27 09:53:30;;;;;;;1.92;1.83;;;24.80;52.90;;;;;;5014250;28;20116;-74
2023/06/27 09:56:00;;;;;;;1.70;1.60;;;24.90;52.90;;;;;;5014196;28;20022;-74
2023/06/27 09:58:30;;;;;;;1.98;1.80;;;25.00;52.90;;;;;;5013858;28;20033;-73
2023/06/27 10:01:04;;;;;;;1.75;1.65;;;25.10;52.80;;;;;;5015630;28;20108;-74
2023/06/27 10:03:30;;;;;;;1.92;1.75;;;25.20;52.70;;;;;;5014359;28;20048;-74
2023/06/27 10:05:56;;;;;;;1.83;1.60;;;25.30;52.50;;;;;;5015002;28;20026;-74
2023/06/27 10:08:21;;;;;;;1.52;1.42;;;25.30;52.40;;;;;;5013765;28;20030;-75
2023/06/27 10:10:47;;;;;;;1.92;1.73;;;25.40;52.30;;;;;;5013680;28;20037;-74
2023/06/27 10:13:13;;;;;;;1.80;1.70;;;25.40;52.20;;;;;;5014742;28;20396;-73
2023/06/27 10:15:38;;;;;;;1.67;1.58;;;25.40;52.20;;;;;;5015406;28;20029;-75
2023/06/27 10:18:04;;;;;;;1.90;1.80;;;25.50;52.20;;;;;;5013487;28;20032;-74
2023/06/27 10:20:30;;;;;;;2.95;1.73;;;25.60;52.10;;;;;;5015316;28;20030;-74
2023/06/27 10:22:58;;;;;;;2.00;1.80;;;25.70;52.10;;;;;;5013589;28;20037;-74
2023/06/27 10:25:26;;;;;;;2.13;1.92;;;25.70;51.90;;;;;;5015095;28;20415;-74
2023/06/27 10:28:07;;;;;;;1.80;1.70;;;25.80;51.90;;;;;;5013351;28;20029;-73
2023/06/27 10:30:37;;;;;;;2.55;2.00;;;25.80;51.60;;;;;;5013272;28;20112;-74
2023/06/27 10:33:10;;;;;;;1.90;1.80;;;25.80;51.80;;;;;;5014737;28;20022;-74
2023/06/27 10:35:48;;;;;;;1.70;1.60;;;25.80;51.80;;;;;;5014611;28;20029;-75
2023/06/27 10:38:21;;;;;;;2.03;1.85;;;25.70;51.70;;;;;;5012901;28;20271;-74
2023/06/27 10:41:09;;;;;;;2.10;2.00;;;25.70;51.60;;;;;;5013172;28;20034;-74
2023/06/27 10:43:47;;;;;;;2.20;1.95;;;25.70;51.40;;;;;;5014073;28;20053;-75
2023/06/27 10:46:26;;;;;;;2.30;2.00;;;25.70;51.80;;;;;;5013025;28;20041;-74
2023/06/27 10:49:01;;;;;;;2.38;1.70;;;25.80;51.60;;;;;;5013958;28;20120;-74
2023/06/27 10:51:35;;;;;;;1.90;1.80;;;25.80;51.60;;;;;;5013140;28;20037;-74
2023/06/27 10:54:11;;;;;;;2.17;1.98;;;25.90;51.50;;;;;;5014424;28;20034;-75
2023/06/27 10:56:51;;;;;;;2.50;2.10;;;25.90;51.40;;;;;;5014199;28;20126;-74
2023/06/27 10:59:18;;;;;;;2.40;1.85;;;25.90;51.20;;;;;;5014569;28;20026;-74
2023/06/27 11:01:59;;;;;;;2.10;1.90;;;25.90;51.50;;;;;;5012766;28;20076;-76
2023/06/27 11:04:36;;;;;;;2.10;2.00;;;26.00;51.40;;;;;;5012720;28;20026;-74
2023/06/27 11:07:02;;;;;;;2.00;1.88;;;26.00;51.40;;;;;;5012878;28;20025;-74
2023/06/27 11:09:31;;;;;;;2.10;1.90;;;26.00;51.40;;;;;;5014108;28;20057;-74
2023/06/27 11:12:11;;;;;;;2.20;2.00;;;26.10;51.50;;;;;;5014153;28;20030;-74
2023/06/27 11:14:44;;;;;;;2.45;1.95;;;26.10;51.10;;;;;;5013961;28;20030;-74
2023/06/27 11:17:14;;;;;;;2.20;2.00;;;26.10;51.10;;;;;;5012441;28;20041;-74
2023/06/27 11:19:42;;;;;;;1.90;1.70;;;26.20;51.20;;;;;;5014056;28;20368;-73
2023/06/27 11:22:08;;;;;;;2.20;2.00;;;26.20;51.10;;;;;;5012518;28;20037;-74
2023/06/27 11:24:35;;;;;;;1.95;1.83;;;26.20;51.10;;;;;;5013936;28;20380;-73
2023/06/27 11:27:06;;;;;;;2.20;1.92;;;26.30;51.10;;;;;;5013827;28;20072;-74
2023/06/27 11:29:33;;;;;;;2.05;1.95;;;26.30;50.90;;;;;;5012695;28;20049;-74
2023/06/27 11:31:59;;;;;;;2.20;2.00;;;26.30;50.90;;;;;;5013960;28;20029;-74
2023/06/27 11:34:25;;;;;;;1.92;1.83;;;26.30;50.90;;;;;;4996074;28;20030;-73
2023/06/27 11:36:51;;;;;;;2.33;2.00;;;26.30;50.80;;;;;;5013010;28;20026;-74
2023/06/27 11:39:17;;;;;;;2.05;1.85;;;26.40;50.70;;;;;;5012561;28;20364;-74
2023/06/27 11:41:44;;;;;;;2.40;2.20;;;26.40;50.60;;;;;;5013774;28;20511;-72
2023/06/27 11:44:16;;;;;;;2.58;2.38;;;26.50;50.50;;;;;;5013523;28;20038;-73
2023/06/27 11:46:55;;;;;;;2.78;1.80;;;26.60;50.40;;;;;;5013748;28;20045;-73
2023/06/27 11:49:25;;;;;;;2.20;2.00;;;26.70;50.20;;;;;;5013907;28;20033;-74
2023/06/27 11:51:58;;;;;;;2.03;1.83;;;26.70;50.20;;;;;;5013440;28;20472;-74
2023/06/27 11:54:24;;;;;;;1.90;1.80;;;26.80;50.10;;;;;;5013568;28;20018;-74
2023/06/27 11:56:50;;;;;;;2.72;2.15;;;26.80;50.20;;;;;;5013518;28;20030;-73
2023/06/27 11:59:16;;;;;;;2.45;2.20;;;26.80;50.10;;;;;;5013695;28;20033;-74
2023/06/27 12:01:45;;;;;;;1.95;1.80;;;26.80;50.00;;;;;;5013297;28;20022;-74
2023/06/27 12:04:15;;;;;;;2.10;2.00;;;26.90;50.00;;;;;;5015701;28;20033;-74
2023/06/27 12:06:43;;;;;;;2.20;2.00;;;26.90;49.90;;;;;;5015879;28;20414;-74
2023/06/27 12:09:19;;;;;;;2.15;1.92;;;26.90;49.90;;;;;;5017166;28;20108;-74
2023/06/27 12:12:03;;;;;;;2.17;1.98;;;26.90;49.70;;;;;;5017199;28;20030;-73
2023/06/27 12:14:29;;;;;;;;;;;26.90;49.80;;;;;;5016810;28;20388;-74
2023/06/27 12:16:55;;;;;;;2.22;1.88;;;26.90;49.20;;;;;;5017119;28;19909;-73
2023/06/27 12:19:22;;;;;;;1.98;1.77;;;26.90;49.80;;;;;;5015796;28;20089;-73
2023/06/27 12:21:49;;;;;;;2.10;1.95;;;26.90;49.80;;;;;;5016920;28;20022;-73
2023/06/27 12:24:15;;;;;;;2.08;1.88;;;27.00;49.80;;;;;;5016055;28;20083;-73
2023/06/27 12:26:40;;;;;;;1.80;1.70;;;27.00;49.70;;;;;;5016924;28;20033;-73
2023/06/27 12:29:08;;;;;;;2.30;2.10;;;27.00;49.40;;;;;;5015812;28;20120;-74
2023/06/27 12:31:37;;;;;;;4.00;2.20;;;27.00;49.30;;;;;;5016952;28;20058;-74
2023/06/27 12:34:03;;;;;;;2.30;2.10;;;27.00;49.40;;;;;;5017026;28;20491;-76
2023/06/27 12:36:33;;;;;;;2.65;2.35;;;27.00;49.40;;;;;;5031895;28;20115;-73
2023/06/27 12:39:00;;;;;;;1.85;1.75;;;27.00;49.10;;;;;;5016438;28;20445;-73
2023/06/27 12:41:27;;;;;;;2.28;2.08;;;27.00;48.90;;;;;;5015535;28;20066;-73
2023/06/27 12:43:53;;;;;;;1.83;1.70;;;27.00;48.80;;;;;;5015242;28;20054;-74
2023/06/27 12:46:19;;;;;;;1.83;1.73;;;27.00;48.90;;;;;;5016649;28;20116;-74
2023/06/27 12:48:47;;;;;;;2.80;2.28;;;27.00;48.90;;;;;;5016499;28;20495;-75